createdAt,value
2023-01-23T00:01:13.179Z,19.23
2023-01-23T00:03:40.012Z,17.70
2023-01-23T00:06:10.782Z,18.60
2023-01-23T00:08:38.321Z,18.50
2023-01-23T00:11:11.342Z,16.75
2023-01-23T00:13:38.654Z,18.45
2023-01-23T00:16:14.846Z,17.58
2023-01-23T00:18:42.100Z,18.73
2023-01-23T00:21:11.448Z,17.95
2023-01-23T00:23:41.548Z,18.33
2023-01-23T00:26:11.204Z,16.83
2023-01-23T00:28:37.988Z,17.27
2023-01-23T00:31:13.066Z,18.00
2023-01-23T00:33:40.489Z,17.58
2023-01-23T00:36:08.487Z,17.65
2023-01-23T00:38:36.136Z,18.42
2023-01-23T00:41:03.751Z,18.65
2023-01-23T00:43:31.187Z,18.88
2023-01-23T00:45:58.102Z,18.38
2023-01-23T00:48:25.199Z,17.98
2023-01-23T00:50:53.217Z,20.15
2023-01-23T00:53:20.273Z,17.38
2023-01-23T00:55:47.077Z,17.73
2023-01-23T00:58:13.860Z,19.35
2023-01-23T01:00:40.817Z,19.90
2023-01-23T01:03:08.578Z,18.98
2023-01-23T01:05:35.524Z,18.30
2023-01-23T01:08:02.404Z,17.85
2023-01-23T01:10:29.694Z,18.85
2023-01-23T01:12:57.800Z,19.45
2023-01-23T01:15:25.072Z,18.60
2023-01-23T01:17:54.236Z,20.02
2023-01-23T01:20:26.064Z,19.83
2023-01-23T01:22:54.549Z,19.48
2023-01-23T01:25:21.431Z,18.92
2023-01-23T01:27:48.599Z,19.40
2023-01-23T01:30:17.682Z,18.17
2023-01-23T01:32:45.208Z,19.65
2023-01-23T01:35:12.651Z,17.25
2023-01-23T01:37:40.771Z,19.42
2023-01-23T01:40:12.082Z,18.83
2023-01-23T01:42:43.515Z,18.17
2023-01-23T01:45:48.100Z,18.67
2023-01-23T01:48:15.444Z,19.58
2023-01-23T01:50:42.709Z,18.63
2023-01-23T01:53:10.807Z,19.27
2023-01-23T01:55:39.070Z,19.20
2023-01-23T01:58:06.523Z,18.75
2023-01-23T02:00:33.444Z,19.17
2023-01-23T02:03:03.424Z,18.58
2023-01-23T02:05:43.013Z,17.65
2023-01-23T02:08:26.758Z,18.80
2023-01-23T02:10:53.921Z,17.88
2023-01-23T02:13:39.433Z,18.83
2023-01-23T02:16:10.446Z,18.55
2023-01-23T02:18:42.686Z,18.23
2023-01-23T02:21:10.824Z,18.83
2023-01-23T02:24:01.433Z,19.10
2023-01-23T02:26:32.933Z,20.17
2023-01-23T02:28:59.853Z,19.50
2023-01-23T02:31:27.276Z,18.05
2023-01-23T02:33:56.624Z,18.73
2023-01-23T02:36:27.282Z,21.35
2023-01-23T02:39:15.319Z,19.33
2023-01-23T02:41:50.229Z,18.90
2023-01-23T02:44:19.988Z,18.75
2023-01-23T02:46:46.777Z,17.73
2023-01-23T02:49:13.651Z,18.60
2023-01-23T02:51:40.415Z,19.42
2023-01-23T02:54:07.365Z,17.80
2023-01-23T02:56:34.372Z,17.70
2023-01-23T02:59:19.663Z,18.20
2023-01-23T03:01:46.660Z,19.73
2023-01-23T03:04:13.483Z,17.77
2023-01-23T03:06:40.236Z,18.40
2023-01-23T03:09:10.353Z,17.63
2023-01-23T03:11:39.725Z,17.20
2023-01-23T03:14:08.773Z,17.83
2023-01-23T03:16:38.281Z,16.70
2023-01-23T03:19:09.014Z,16.67
2023-01-23T03:21:40.445Z,17.15
2023-01-23T03:24:09.360Z,18.27
2023-01-23T03:26:39.034Z,17.60
2023-01-23T03:29:24.841Z,18.10
2023-01-23T03:31:52.062Z,18.02
2023-01-23T03:34:19.166Z,16.95
2023-01-23T03:36:45.996Z,17.25
2023-01-23T03:39:31.246Z,16.98
2023-01-23T03:41:58.010Z,17.85
2023-01-23T03:44:24.840Z,17.55
2023-01-23T03:46:52.454Z,17.50
2023-01-23T03:49:19.890Z,17.88
2023-01-23T03:51:47.047Z,19.05
2023-01-23T03:54:14.848Z,17.90
2023-01-23T03:56:42.477Z,17.33
2023-01-23T03:59:10.227Z,17.77
2023-01-23T04:01:38.057Z,18.40
2023-01-23T04:04:05.416Z,16.67
2023-01-23T04:06:32.728Z,16.30
2023-01-23T04:08:59.605Z,15.93
2023-01-23T04:11:27.035Z,17.40
2023-01-23T04:13:55.129Z,17.33
2023-01-23T04:16:22.908Z,16.98
2023-01-23T04:18:51.132Z,17.30
2023-01-23T04:21:18.096Z,17.67
2023-01-23T04:23:44.943Z,16.30
2023-01-23T04:26:12.338Z,16.95
2023-01-23T04:28:39.359Z,16.05
2023-01-23T04:31:06.793Z,17.80
2023-01-23T04:33:33.675Z,17.58
2023-01-23T04:36:03.414Z,18.30
2023-01-23T04:38:31.528Z,16.52
2023-01-23T04:40:58.391Z,16.92
2023-01-23T04:43:25.523Z,16.70
2023-01-23T04:45:54.412Z,15.32
2023-01-23T04:48:21.759Z,16.38
2023-01-23T04:50:49.918Z,15.30
2023-01-23T04:53:16.790Z,15.90
2023-01-23T04:55:46.203Z,17.15
2023-01-23T04:58:13.037Z,16.42
2023-01-23T05:00:39.883Z,16.38
2023-01-23T05:03:06.657Z,16.83
2023-01-23T05:05:33.537Z,17.45
2023-01-23T05:08:00.568Z,19.25
2023-01-23T05:10:27.415Z,17.75
2023-01-23T05:12:54.206Z,15.95
2023-01-23T05:15:21.378Z,16.23
2023-01-23T05:17:48.948Z,14.23
2023-01-23T05:20:16.100Z,15.25
2023-01-23T05:22:52.426Z,16.60
2023-01-23T05:25:25.095Z,15.90
2023-01-23T05:27:52.628Z,16.38
2023-01-23T05:30:23.109Z,15.38
2023-01-23T05:32:50.106Z,15.90
2023-01-23T05:35:17.395Z,16.65
2023-01-23T05:37:48.794Z,15.25
2023-01-23T05:40:15.663Z,17.80
2023-01-23T05:42:42.461Z,16.23
2023-01-23T05:45:09.636Z,17.30
2023-01-23T05:47:36.493Z,16.83
2023-01-23T05:50:04.613Z,16.63
2023-01-23T05:52:31.406Z,16.70
2023-01-23T05:54:58.252Z,15.40
2023-01-23T05:57:25.134Z,17.40
2023-01-23T05:59:51.921Z,17.30
2023-01-23T06:02:18.809Z,16.25
2023-01-23T06:04:48.032Z,16.90
2023-01-23T06:07:16.421Z,17.40
2023-01-23T06:09:43.282Z,16.88
2023-01-23T06:12:10.328Z,16.95
2023-01-23T06:14:37.279Z,16.77
2023-01-23T06:17:04.581Z,18.30
2023-01-23T06:19:31.495Z,17.25
2023-01-23T06:21:58.365Z,17.60
2023-01-23T06:24:25.258Z,16.75
2023-01-23T06:26:52.027Z,18.00
2023-01-23T06:29:18.845Z,18.40
2023-01-23T06:31:49.497Z,17.33
2023-01-23T06:34:36.970Z,16.55
2023-01-23T06:37:04.535Z,17.77
2023-01-23T06:39:55.405Z,17.38
2023-01-23T06:42:31.381Z,18.55
2023-01-23T06:44:58.585Z,19.58
2023-01-23T06:47:34.383Z,19.92
2023-01-23T06:50:07.415Z,20.15
2023-01-23T06:52:34.729Z,18.27
2023-01-23T06:55:02.370Z,19.40
2023-01-23T07:03:17.136Z,20.60
2023-01-23T07:10:36.909Z,21.45
2023-01-23T07:12:10.197Z,20.25
2023-01-23T07:18:16.893Z,21.38
2023-01-23T07:20:50.786Z,19.83
2023-01-23T07:23:40.623Z,21.33
2023-01-23T07:26:10.062Z,21.50
2023-01-23T07:28:49.089Z,22.50
2023-01-23T07:31:18.347Z,21.77
2023-01-23T07:33:48.435Z,21.88
2023-01-23T07:36:37.096Z,23.77
2023-01-23T07:39:11.188Z,22.60
2023-01-23T07:44:38.914Z,24.25
2023-01-23T07:47:08.799Z,22.45
2023-01-23T07:49:35.785Z,21.88
2023-01-23T07:52:22.148Z,23.35
2023-01-23T07:54:51.904Z,22.25
2023-01-23T07:57:19.031Z,20.15
2023-01-23T07:59:47.918Z,20.45
2023-01-23T08:02:24.172Z,21.27
2023-01-23T08:04:51.546Z,21.17
2023-01-23T08:07:18.698Z,20.00
2023-01-23T08:09:49.747Z,21.33
2023-01-23T08:12:28.365Z,17.80
2023-01-23T08:14:56.788Z,18.13
2023-01-23T08:17:26.992Z,18.20
2023-01-23T08:19:56.966Z,18.92
2023-01-23T08:22:37.477Z,17.98
2023-01-23T08:25:04.979Z,18.45
2023-01-23T08:27:32.036Z,18.35
2023-01-23T08:29:59.268Z,17.27
2023-01-23T08:32:26.424Z,16.25
2023-01-23T08:34:56.339Z,16.52
2023-01-23T08:37:23.195Z,15.65
2023-01-23T08:39:49.970Z,15.13
2023-01-23T08:42:16.755Z,15.82
2023-01-23T08:44:43.525Z,15.00
2023-01-23T08:47:10.341Z,15.82
2023-01-23T08:49:37.249Z,16.13
2023-01-23T08:52:05.920Z,17.25
2023-01-23T08:54:33.136Z,14.75
2023-01-23T08:56:59.956Z,15.52
2023-01-23T08:59:26.831Z,14.45
2023-01-23T09:01:53.668Z,16.33
2023-01-23T09:04:20.456Z,14.25
2023-01-23T09:06:47.282Z,5.10
2023-01-23T09:09:14.088Z,14.52
2023-01-23T09:11:40.879Z,16.67
2023-01-23T09:14:07.857Z,16.10
2023-01-23T09:16:34.730Z,16.02
2023-01-23T09:19:01.514Z,14.82
2023-01-23T09:21:28.387Z,13.90
2023-01-23T09:23:58.882Z,14.77
2023-01-23T09:26:26.228Z,15.40
2023-01-23T09:28:54.539Z,17.17
2023-01-23T09:31:21.378Z,15.00
2023-01-23T09:33:49.206Z,14.38
2023-01-23T09:36:16.064Z,13.13
2023-01-23T09:38:42.928Z,15.90
2023-01-23T09:41:17.858Z,16.13
2023-01-23T09:43:55.530Z,16.73
2023-01-23T09:46:37.506Z,13.77
2023-01-23T09:49:13.104Z,15.65
2023-01-23T09:52:01.702Z,15.25
2023-01-23T09:54:28.525Z,14.77
2023-01-23T09:56:56.579Z,13.85
2023-01-23T09:59:58.723Z,14.50
2023-01-23T10:02:28.148Z,14.55
2023-01-23T10:04:56.596Z,13.23
2023-01-23T10:07:37.922Z,13.80
2023-01-23T10:10:40.316Z,14.15
2023-01-23T10:13:41.912Z,13.07
2023-01-23T10:16:22.832Z,12.43
2023-01-23T10:19:05.510Z,14.48
2023-01-23T10:21:52.237Z,14.90
2023-01-23T10:24:58.328Z,15.50
2023-01-23T10:27:31.431Z,15.05
2023-01-23T10:30:03.736Z,16.00
2023-01-23T10:32:37.538Z,14.90
2023-01-23T10:35:12.607Z,14.77
2023-01-23T10:37:52.703Z,12.43
2023-01-23T10:40:42.416Z,14.65
2023-01-23T10:43:18.038Z,13.85
2023-01-23T10:45:49.793Z,15.98
2023-01-23T10:48:39.122Z,14.70
2023-01-23T10:51:39.507Z,15.70
2023-01-23T10:54:11.322Z,15.55
2023-01-23T10:56:53.711Z,15.27
2023-01-23T10:59:26.638Z,14.95
2023-01-23T11:02:13.808Z,15.27
2023-01-23T11:04:45.985Z,14.85
2023-01-23T11:07:20.515Z,16.17
2023-01-23T11:10:00.561Z,15.90
2023-01-23T11:12:28.644Z,13.88
2023-01-23T11:15:21.326Z,16.15
2023-01-23T11:17:49.695Z,16.23
2023-01-23T11:20:33.457Z,16.15
2023-01-23T11:23:01.399Z,11.00
2023-01-23T11:25:39.972Z,15.20
2023-01-23T11:28:30.812Z,15.05
2023-01-23T11:31:27.323Z,14.80
2023-01-23T11:33:59.336Z,14.88
2023-01-23T11:36:53.298Z,14.48
2023-01-23T11:39:42.066Z,14.50
2023-01-23T11:42:13.625Z,15.82
2023-01-23T11:44:46.518Z,13.98
2023-01-23T11:47:34.809Z,13.20
2023-01-23T11:50:04.488Z,15.00
2023-01-23T11:52:34.641Z,14.43
2023-01-23T11:55:39.756Z,15.07
2023-01-23T11:58:39.571Z,12.80
2023-01-23T12:01:15.725Z,12.20
2023-01-23T12:04:00.725Z,14.55
2023-01-23T12:06:45.743Z,14.68
2023-01-23T12:09:18.061Z,14.05
2023-01-23T12:12:15.286Z,14.63
2023-01-23T12:15:03.585Z,14.82
2023-01-23T12:17:46.935Z,13.20
2023-01-23T12:20:33.215Z,14.15
2023-01-23T12:23:32.471Z,13.93
2023-01-23T12:26:04.883Z,14.23
2023-01-23T12:28:45.129Z,16.13
2023-01-23T12:31:33.724Z,15.52
2023-01-23T12:34:03.644Z,15.40
2023-01-23T12:37:07.188Z,13.70
2023-01-23T12:39:59.814Z,15.30
2023-01-23T12:42:43.531Z,13.45
2023-01-23T12:45:22.939Z,14.30
2023-01-23T12:48:02.055Z,15.25
2023-01-23T12:50:35.206Z,12.95
2023-01-23T12:53:09.917Z,15.55
2023-01-23T12:55:59.284Z,14.55
2023-01-23T12:58:29.167Z,14.65
2023-01-23T13:01:07.800Z,16.10
2023-01-23T13:03:56.842Z,14.80
2023-01-23T13:06:35.607Z,15.93
2023-01-23T13:09:18.715Z,14.60
2023-01-23T13:12:05.057Z,16.23
2023-01-23T13:14:43.489Z,15.05
2023-01-23T13:17:37.037Z,14.75
2023-01-23T13:20:47.284Z,14.13
2023-01-23T13:23:35.367Z,13.93
2023-01-23T13:26:19.459Z,14.40
2023-01-23T13:28:57.234Z,15.70
2023-01-23T13:31:47.640Z,13.52
2023-01-23T13:34:17.783Z,13.85
2023-01-23T13:36:49.668Z,15.60
2023-01-23T13:39:22.928Z,14.13
2023-01-23T13:42:12.796Z,14.07
2023-01-23T13:45:14.650Z,14.18
2023-01-23T14:22:40.949Z,15.90
2023-01-23T14:25:17.550Z,16.10
2023-01-23T14:27:53.282Z,12.23
2023-01-23T14:30:28.251Z,14.75
2023-01-23T14:32:56.675Z,13.32
2023-01-23T14:35:30.792Z,15.10
2023-01-23T14:38:00.790Z,15.05
2023-01-23T14:40:33.421Z,13.80
2023-01-23T14:43:09.810Z,14.52
2023-01-23T14:45:37.663Z,15.75
2023-01-23T14:48:15.816Z,11.40
2023-01-23T14:50:43.004Z,14.25
2023-01-23T14:53:15.271Z,15.02
2023-01-23T14:55:46.232Z,13.30
2023-01-23T14:58:23.886Z,14.65
2023-01-23T15:01:04.748Z,13.38
2023-01-23T15:03:36.215Z,14.02
2023-01-23T15:06:08.431Z,14.50
2023-01-23T15:08:36.922Z,15.23
2023-01-23T15:11:06.491Z,13.13
2023-01-23T15:13:50.312Z,14.50
2023-01-23T15:16:26.080Z,13.45
2023-01-23T15:19:08.178Z,14.30
2023-01-23T15:21:38.553Z,13.80
2023-01-23T15:24:20.416Z,14.20
2023-01-23T15:26:55.927Z,13.88
2023-01-23T15:29:23.094Z,14.43
2023-01-23T15:31:52.602Z,14.18
2023-01-23T15:34:31.614Z,15.63
2023-01-23T15:37:13.689Z,14.55
2023-01-23T15:39:51.485Z,13.75
2023-01-23T15:42:18.216Z,11.75
2023-01-23T15:44:45.344Z,14.23
2023-01-23T15:47:12.150Z,12.57
2023-01-23T15:49:40.163Z,11.57
2023-01-23T15:52:46.028Z,13.95
2023-01-23T15:55:13.403Z,13.10
2023-01-23T15:57:41.892Z,15.75
2023-01-23T16:00:24.883Z,16.25
2023-01-23T16:02:56.734Z,11.55
2023-01-23T16:05:30.178Z,12.65
2023-01-23T16:08:01.161Z,16.48
2023-01-23T16:10:36.222Z,16.38
2023-01-23T16:13:03.107Z,14.38
2023-01-23T16:15:32.981Z,16.77
2023-01-23T16:18:00.887Z,11.52
2023-01-23T16:20:31.063Z,16.67
2023-01-23T16:23:18.751Z,18.10
2023-01-23T16:25:46.682Z,15.32
2023-01-23T16:28:15.883Z,11.50
2023-01-23T16:30:42.959Z,17.20
2023-01-23T16:33:09.991Z,18.48
2023-01-23T16:35:36.952Z,17.52
2023-01-23T16:38:04.191Z,18.85
2023-01-23T16:40:32.108Z,11.15
2023-01-23T16:43:00.051Z,18.17
2023-01-23T16:45:29.341Z,18.45
2023-01-23T16:47:56.669Z,14.02
2023-01-23T16:50:44.010Z,18.13
2023-01-23T16:53:31.288Z,17.60
2023-01-23T16:56:00.468Z,11.02
2023-01-23T16:58:30.870Z,16.60
2023-01-23T17:01:08.803Z,17.75
2023-01-23T17:03:40.725Z,15.20
2023-01-23T17:06:17.036Z,17.42
2023-01-23T17:08:43.874Z,17.35
2023-01-23T17:11:20.010Z,17.38
2023-01-23T17:13:48.235Z,17.20
2023-01-23T17:16:26.439Z,18.13
2023-01-23T17:18:55.688Z,16.15
2023-01-23T17:21:25.010Z,16.35
2023-01-23T17:23:52.212Z,17.42
2023-01-23T17:26:20.902Z,17.33
2023-01-23T17:28:48.154Z,17.80
2023-01-23T17:31:24.751Z,19.50
2023-01-23T17:33:55.907Z,16.23
2023-01-23T17:36:22.838Z,16.88
2023-01-23T17:38:57.966Z,18.40
2023-01-23T17:41:24.841Z,19.08
2023-01-23T17:43:52.757Z,18.02
2023-01-23T17:46:23.881Z,12.57
2023-01-23T17:48:50.771Z,17.55
2023-01-23T17:51:19.529Z,17.73
2023-01-23T17:53:46.896Z,17.77
2023-01-23T17:56:14.159Z,17.65
2023-01-23T17:58:41.054Z,18.63
2023-01-23T18:01:22.349Z,16.67
2023-01-23T18:03:50.756Z,18.27
2023-01-23T18:06:18.654Z,18.90
2023-01-23T18:08:46.166Z,17.58
2023-01-23T18:11:21.852Z,15.27
2023-01-23T18:13:59.910Z,15.73
2023-01-23T18:16:35.206Z,16.77
2023-01-23T18:19:17.047Z,15.90
2023-01-23T18:21:45.873Z,17.20
2023-01-23T18:24:30.307Z,20.48
2023-01-23T18:27:04.876Z,18.02
2023-01-23T18:29:43.886Z,14.77
2023-01-23T18:32:18.848Z,17.55
2023-01-23T18:35:23.644Z,19.73
2023-01-23T18:38:07.587Z,18.63
2023-01-23T18:41:01.186Z,15.07
2023-01-23T18:43:39.802Z,14.82
2023-01-23T18:46:15.313Z,16.73
2023-01-23T18:48:43.722Z,20.65
2023-01-23T18:51:38.632Z,15.55
2023-01-23T18:54:23.044Z,18.23
2023-01-23T18:57:26.165Z,18.75
2023-01-23T19:00:17.705Z,20.40
2023-01-23T19:02:46.855Z,19.83
2023-01-23T19:05:16.706Z,19.35
2023-01-23T19:07:45.065Z,20.23
2023-01-23T19:10:17.627Z,20.45
2023-01-23T19:13:02.104Z,19.40
2023-01-23T19:15:30.243Z,22.48
2023-01-23T19:18:12.356Z,21.30
2023-01-23T19:20:55.416Z,22.23
2023-01-23T19:23:44.295Z,21.98
2023-01-23T19:26:16.596Z,20.00
2023-01-23T19:28:43.780Z,18.25
2023-01-23T19:31:37.846Z,22.23
2023-01-23T19:34:06.641Z,20.27
2023-01-23T19:36:35.989Z,20.42
2023-01-23T19:39:04.532Z,19.40
2023-01-23T19:41:49.248Z,20.63
2023-01-23T19:44:18.917Z,20.50
2023-01-23T19:46:46.219Z,22.25
2023-01-23T19:49:14.080Z,23.23
2023-01-23T19:51:41.508Z,22.20
2023-01-23T19:54:12.516Z,12.77
2023-01-23T19:56:39.521Z,21.25
2023-01-23T19:59:07.078Z,19.90
2023-01-23T20:01:34.596Z,19.23
2023-01-23T20:04:05.252Z,18.58
2023-01-23T20:06:34.323Z,21.35
2023-01-23T20:09:01.262Z,20.58
2023-01-23T20:11:28.147Z,21.33
2023-01-23T20:13:54.916Z,21.10
2023-01-23T20:16:25.120Z,19.95
2023-01-23T20:18:53.673Z,18.95
2023-01-23T20:21:23.007Z,21.63
2023-01-23T20:23:50.592Z,19.95
2023-01-23T20:26:19.549Z,21.08
2023-01-23T20:28:53.345Z,21.60
2023-01-23T20:31:20.301Z,22.13
2023-01-23T20:33:47.531Z,18.48
2023-01-23T20:36:15.965Z,22.25
2023-01-23T20:38:43.221Z,23.38
2023-01-23T20:41:15.322Z,23.70
2023-01-23T20:43:45.451Z,20.65
2023-01-23T20:46:14.389Z,19.92
2023-01-23T20:48:46.009Z,20.40
2023-01-23T20:51:15.056Z,20.75
2023-01-23T20:53:41.926Z,19.15
2023-01-23T20:56:20.096Z,21.42
2023-01-23T20:59:07.810Z,20.95
2023-01-23T21:01:56.648Z,21.90
2023-01-23T21:04:28.670Z,18.33
2023-01-23T21:06:55.537Z,20.13
2023-01-23T21:09:23.211Z,17.88
2023-01-23T21:11:51.702Z,21.58
2023-01-23T21:14:19.395Z,19.67
2023-01-23T21:16:47.150Z,20.27
2023-01-23T21:19:14.821Z,23.25
2023-01-23T21:21:41.997Z,19.33
2023-01-23T21:24:09.197Z,21.67
2023-01-23T21:26:37.355Z,22.10
2023-01-23T21:29:04.729Z,21.55
2023-01-23T21:31:34.176Z,20.05
2023-01-23T21:34:10.320Z,20.73
2023-01-23T21:36:37.912Z,23.65
2023-01-23T21:39:05.445Z,22.15
2023-01-23T21:41:32.227Z,20.02
2023-01-23T21:43:59.036Z,21.48
2023-01-23T21:46:25.905Z,20.67
2023-01-23T21:48:52.734Z,21.05
2023-01-23T21:51:21.737Z,20.73
2023-01-23T21:53:50.372Z,20.85
2023-01-23T21:56:19.618Z,18.65
2023-01-23T21:58:49.315Z,21.38
2023-01-23T22:01:35.680Z,21.88
2023-01-23T22:04:22.448Z,22.40
2023-01-23T22:06:54.093Z,21.85
2023-01-23T22:09:24.646Z,22.75
2023-01-23T22:11:52.177Z,21.48
2023-01-23T22:14:19.369Z,20.55
2023-01-23T22:16:49.698Z,22.42
2023-01-23T22:19:21.049Z,19.42
2023-01-23T22:21:49.496Z,21.92
2023-01-23T22:24:16.371Z,21.00
2023-01-23T22:26:43.553Z,21.02
2023-01-23T22:29:14.965Z,21.52
2023-01-23T22:31:42.617Z,21.95
2023-01-23T22:34:09.977Z,20.35
2023-01-23T22:36:36.814Z,19.42
2023-01-23T22:39:04.081Z,20.67
2023-01-23T22:41:30.912Z,21.52
2023-01-23T22:43:59.455Z,20.10
2023-01-23T22:46:26.609Z,19.65
2023-01-23T22:48:53.550Z,21.88
2023-01-23T22:51:24.621Z,21.58
2023-01-23T22:53:53.195Z,20.58
2023-01-23T22:56:20.518Z,20.42
2023-01-23T22:58:48.583Z,18.73
2023-01-23T23:01:16.296Z,19.92
2023-01-23T23:03:43.295Z,20.90
2023-01-23T23:06:12.842Z,19.75
2023-01-23T23:08:39.791Z,18.83
2023-01-23T23:11:14.547Z,16.67
2023-01-23T23:13:41.586Z,16.58
2023-01-23T23:16:21.991Z,16.45
2023-01-23T23:18:51.935Z,19.60
2023-01-23T23:21:22.342Z,20.50
2023-01-23T23:23:49.588Z,20.88
2023-01-23T23:26:16.884Z,18.15
2023-01-23T23:28:43.897Z,20.40
2023-01-23T23:31:10.969Z,11.45
2023-01-23T23:33:38.195Z,17.02
2023-01-23T23:36:05.886Z,17.75
2023-01-23T23:38:32.932Z,19.00
2023-01-23T23:41:02.200Z,18.30
2023-01-23T23:43:29.389Z,19.48
2023-01-23T23:45:58.732Z,20.45
2023-01-23T23:48:26.444Z,17.73
2023-01-23T23:50:54.266Z,19.05
2023-01-23T23:53:22.114Z,23.13
2023-01-23T23:55:49.362Z,19.50
2023-01-23T23:58:16.221Z,22.20
